sensor_id;sensor_type;location;lat;lon;timestamp;temperature;humidity
17364;DHT22;8799;43.594;13.526;2023-02-28T00:01:14;17.80;99.90
17364;DHT22;8799;43.594;13.526;2023-02-28T00:03:42;17.80;99.90
17364;DHT22;8799;43.594;13.526;2023-02-28T00:06:10;17.80;99.90
17364;DHT22;8799;43.594;13.526;2023-02-28T00:08:40;17.80;99.90
17364;DHT22;8799;43.594;13.526;2023-02-28T00:11:11;17.80;99.90
17364;DHT22;8799;43.594;13.526;2023-02-28T00:13:41;17.80;99.90
17364;DHT22;8799;43.594;13.526;2023-02-28T00:16:11;17.80;99.90
17364;DHT22;8799;43.594;13.526;2023-02-28T00:18:40;17.80;99.90
17364;DHT22;8799;43.594;13.526;2023-02-28T00:21:09;17.80;99.90
17364;DHT22;8799;43.594;13.526;2023-02-28T00:23:37;17.80;99.90
17364;DHT22;8799;43.594;13.526;2023-02-28T00:26:06;17.80;99.90
17364;DHT22;8799;43.594;13.526;2023-02-28T00:28:34;17.80;99.90
17364;DHT22;8799;43.594;13.526;2023-02-28T00:31:02;17.70;99.90
17364;DHT22;8799;43.594;13.526;2023-02-28T00:33:30;17.70;99.90
17364;DHT22;8799;43.594;13.526;2023-02-28T00:36:06;17.70;99.90
17364;DHT22;8799;43.594;13.526;2023-02-28T00:38:34;17.70;99.90
17364;DHT22;8799;43.594;13.526;2023-02-28T00:41:02;17.70;99.90
17364;DHT22;8799;43.594;13.526;2023-02-28T00:43:34;17.70;99.90
17364;DHT22;8799;43.594;13.526;2023-02-28T00:46:03;17.70;99.90
17364;DHT22;8799;43.594;13.526;2023-02-28T00:48:31;17.70;99.90
17364;DHT22;8799;43.594;13.526;2023-02-28T00:51:00;17.70;99.90
17364;DHT22;8799;43.594;13.526;2023-02-28T00:53:29;17.70;99.90
17364;DHT22;8799;43.594;13.526;2023-02-28T00:55:58;17.70;99.90
17364;DHT22;8799;43.594;13.526;2023-02-28T00:58:26;17.70;99.90
17364;DHT22;8799;43.594;13.526;2023-02-28T01:00:56;17.70;99.90
17364;DHT22;8799;43.594;13.526;2023-02-28T01:03:24;17.70;99.90
17364;DHT22;8799;43.594;13.526;2023-02-28T01:05:52;17.70;99.90
17364;DHT22;8799;43.594;13.526;2023-02-28T01:08:20;17.70;99.90
17364;DHT22;8799;43.594;13.526;2023-02-28T01:10:49;17.60;99.90
17364;DHT22;8799;43.594;13.526;2023-02-28T01:13:17;17.60;99.90
17364;DHT22;8799;43.594;13.526;2023-02-28T01:15:49;17.70;99.90
17364;DHT22;8799;43.594;13.526;2023-02-28T01:18:19;17.70;99.90
17364;DHT22;8799;43.594;13.526;2023-02-28T01:20:47;17.60;99.90
17364;DHT22;8799;43.594;13.526;2023-02-28T01:23:17;17.60;99.90
17364;DHT22;8799;43.594;13.526;2023-02-28T01:25:45;17.60;99.90
17364;DHT22;8799;43.594;13.526;2023-02-28T01:28:13;17.60;99.90
17364;DHT22;8799;43.594;13.526;2023-02-28T01:30:41;17.70;99.90
17364;DHT22;8799;43.594;13.526;2023-02-28T01:33:09;17.60;99.90
17364;DHT22;8799;43.594;13.526;2023-02-28T01:35:39;17.70;99.90
17364;DHT22;8799;43.594;13.526;2023-02-28T01:38:07;17.70;99.90
17364;DHT22;8799;43.594;13.526;2023-02-28T01:40:35;17.60;99.90
17364;DHT22;8799;43.594;13.526;2023-02-28T01:43:04;17.60;99.90
17364;DHT22;8799;43.594;13.526;2023-02-28T01:45:34;17.60;99.90
17364;DHT22;8799;43.594;13.526;2023-02-28T01:48:05;17.60;99.90
17364;DHT22;8799;43.594;13.526;2023-02-28T01:50:39;17.60;99.90
17364;DHT22;8799;43.594;13.526;2023-02-28T01:53:12;17.60;99.90
17364;DHT22;8799;43.594;13.526;2023-02-28T01:55:41;17.60;99.90
17364;DHT22;8799;43.594;13.526;2023-02-28T01:58:10;17.60;99.90
17364;DHT22;8799;43.594;13.526;2023-02-28T02:00:38;17.60;99.90
17364;DHT22;8799;43.594;13.526;2023-02-28T02:03:12;17.50;99.90
17364;DHT22;8799;43.594;13.526;2023-02-28T02:05:42;17.50;99.90
17364;DHT22;8799;43.594;13.526;2023-02-28T02:08:16;17.50;99.90
17364;DHT22;8799;43.594;13.526;2023-02-28T02:10:46;17.60;99.90
17364;DHT22;8799;43.594;13.526;2023-02-28T02:13:37;17.50;99.90
17364;DHT22;8799;43.594;13.526;2023-02-28T02:16:18;17.50;99.90
17364;DHT22;8799;43.594;13.526;2023-02-28T02:18:53;17.50;99.90
17364;DHT22;8799;43.594;13.526;2023-02-28T02:21:50;17.50;99.90
17364;DHT22;8799;43.594;13.526;2023-02-28T02:24:47;17.50;99.90
17364;DHT22;8799;43.594;13.526;2023-02-28T02:27:22;17.50;99.90
17364;DHT22;8799;43.594;13.526;2023-02-28T02:30:14;17.50;99.90
17364;DHT22;8799;43.594;13.526;2023-02-28T02:33:06;17.50;99.90
17364;DHT22;8799;43.594;13.526;2023-02-28T02:35:42;17.50;99.90
17364;DHT22;8799;43.594;13.526;2023-02-28T02:38:19;17.40;99.90
17364;DHT22;8799;43.594;13.526;2023-02-28T02:40:56;17.40;99.90
17364;DHT22;8799;43.594;13.526;2023-02-28T02:43:26;17.40;99.90
17364;DHT22;8799;43.594;13.526;2023-02-28T02:45:59;17.40;99.90
17364;DHT22;8799;43.594;13.526;2023-02-28T02:48:30;17.40;99.90
17364;DHT22;8799;43.594;13.526;2023-02-28T02:51:05;17.40;99.90
17364;DHT22;8799;43.594;13.526;2023-02-28T02:53:40;17.40;99.90
17364;DHT22;8799;43.594;13.526;2023-02-28T02:56:09;17.40;99.90
17364;DHT22;8799;43.594;13.526;2023-02-28T02:58:42;17.40;99.90
17364;DHT22;8799;43.594;13.526;2023-02-28T03:01:15;17.40;99.90
17364;DHT22;8799;43.594;13.526;2023-02-28T03:03:55;17.30;99.90
17364;DHT22;8799;43.594;13.526;2023-02-28T03:06:26;17.30;99.90
17364;DHT22;8799;43.594;13.526;2023-02-28T03:08:54;17.30;99.90
17364;DHT22;8799;43.594;13.526;2023-02-28T03:11:22;17.30;99.90
17364;DHT22;8799;43.594;13.526;2023-02-28T03:14:10;17.30;99.90
17364;DHT22;8799;43.594;13.526;2023-02-28T03:16:53;17.30;99.90
17364;DHT22;8799;43.594;13.526;2023-02-28T03:19:34;17.30;99.90
17364;DHT22;8799;43.594;13.526;2023-02-28T03:22:14;17.30;99.90
17364;DHT22;8799;43.594;13.526;2023-02-28T03:24:53;17.30;99.90
17364;DHT22;8799;43.594;13.526;2023-02-28T03:27:27;17.20;99.90
17364;DHT22;8799;43.594;13.526;2023-02-28T03:30:01;17.20;99.90
17364;DHT22;8799;43.594;13.526;2023-02-28T03:32:36;17.20;99.90
17364;DHT22;8799;43.594;13.526;2023-02-28T03:35:09;17.20;99.90
17364;DHT22;8799;43.594;13.526;2023-02-28T03:37:41;17.20;99.90
17364;DHT22;8799;43.594;13.526;2023-02-28T03:40:13;17.20;99.90
17364;DHT22;8799;43.594;13.526;2023-02-28T03:42:44;17.20;99.90
17364;DHT22;8799;43.594;13.526;2023-02-28T03:45:16;17.20;99.90
17364;DHT22;8799;43.594;13.526;2023-02-28T03:47:48;17.20;99.90
17364;DHT22;8799;43.594;13.526;2023-02-28T03:50:19;17.20;99.90
17364;DHT22;8799;43.594;13.526;2023-02-28T03:52:51;17.20;99.90
17364;DHT22;8799;43.594;13.526;2023-02-28T03:55:20;17.20;99.90
17364;DHT22;8799;43.594;13.526;2023-02-28T03:57:56;17.20;99.90
17364;DHT22;8799;43.594;13.526;2023-02-28T04:00:27;17.20;99.90
17364;DHT22;8799;43.594;13.526;2023-02-28T04:02:56;17.20;99.90
17364;DHT22;8799;43.594;13.526;2023-02-28T04:05:25;17.20;99.90
17364;DHT22;8799;43.594;13.526;2023-02-28T04:08:03;17.20;99.90
17364;DHT22;8799;43.594;13.526;2023-02-28T04:10:31;17.20;99.90
17364;DHT22;8799;43.594;13.526;2023-02-28T04:13:00;17.20;99.90
17364;DHT22;8799;43.594;13.526;2023-02-28T04:15:28;17.20;99.90
17364;DHT22;8799;43.594;13.526;2023-02-28T04:17:56;17.20;99.90
17364;DHT22;8799;43.594;13.526;2023-02-28T04:20:24;17.20;99.90
17364;DHT22;8799;43.594;13.526;2023-02-28T04:22:52;17.20;99.90
17364;DHT22;8799;43.594;13.526;2023-02-28T04:25:22;17.20;99.90
17364;DHT22;8799;43.594;13.526;2023-02-28T04:27:49;17.20;99.90
17364;DHT22;8799;43.594;13.526;2023-02-28T04:30:18;17.20;99.90
17364;DHT22;8799;43.594;13.526;2023-02-28T04:32:46;17.20;99.90
17364;DHT22;8799;43.594;13.526;2023-02-28T04:35:14;17.20;99.90
17364;DHT22;8799;43.594;13.526;2023-02-28T04:37:42;17.20;99.90
17364;DHT22;8799;43.594;13.526;2023-02-28T04:40:10;17.20;99.90
17364;DHT22;8799;43.594;13.526;2023-02-28T04:42:40;17.20;99.90
17364;DHT22;8799;43.594;13.526;2023-02-28T04:45:09;17.10;99.90
17364;DHT22;8799;43.594;13.526;2023-02-28T04:47:37;17.10;99.90
17364;DHT22;8799;43.594;13.526;2023-02-28T04:50:05;17.10;99.90
17364;DHT22;8799;43.594;13.526;2023-02-28T04:52:33;17.10;99.90
17364;DHT22;8799;43.594;13.526;2023-02-28T04:55:00;17.10;99.90
17364;DHT22;8799;43.594;13.526;2023-02-28T04:57:28;17.10;99.90
17364;DHT22;8799;43.594;13.526;2023-02-28T04:59:57;17.10;99.90
17364;DHT22;8799;43.594;13.526;2023-02-28T05:02:25;17.10;99.90
17364;DHT22;8799;43.594;13.526;2023-02-28T05:04:53;17.10;99.90
17364;DHT22;8799;43.594;13.526;2023-02-28T05:07:21;17.10;99.90
17364;DHT22;8799;43.594;13.526;2023-02-28T05:09:49;17.10;99.90
17364;DHT22;8799;43.594;13.526;2023-02-28T05:12:16;17.10;99.90
17364;DHT22;8799;43.594;13.526;2023-02-28T05:14:45;17.10;99.90
17364;DHT22;8799;43.594;13.526;2023-02-28T05:17:14;17.10;99.90
17364;DHT22;8799;43.594;13.526;2023-02-28T05:19:46;17.10;99.90
17364;DHT22;8799;43.594;13.526;2023-02-28T05:22:15;17.10;99.90
17364;DHT22;8799;43.594;13.526;2023-02-28T05:24:44;17.10;99.90
17364;DHT22;8799;43.594;13.526;2023-02-28T05:27:11;17.10;99.90
17364;DHT22;8799;43.594;13.526;2023-02-28T05:29:40;17.00;99.90
17364;DHT22;8799;43.594;13.526;2023-02-28T05:32:09;17.10;99.90
17364;DHT22;8799;43.594;13.526;2023-02-28T05:34:39;17.00;99.90
17364;DHT22;8799;43.594;13.526;2023-02-28T05:37:11;17.00;99.90
17364;DHT22;8799;43.594;13.526;2023-02-28T05:39:39;17.00;99.90
17364;DHT22;8799;43.594;13.526;2023-02-28T05:42:07;17.00;99.90
17364;DHT22;8799;43.594;13.526;2023-02-28T05:44:36;17.00;99.90
17364;DHT22;8799;43.594;13.526;2023-02-28T05:47:03;17.00;99.90
17364;DHT22;8799;43.594;13.526;2023-02-28T05:49:31;17.00;99.90
17364;DHT22;8799;43.594;13.526;2023-02-28T05:52:01;17.00;99.90
17364;DHT22;8799;43.594;13.526;2023-02-28T05:54:29;17.00;99.90
17364;DHT22;8799;43.594;13.526;2023-02-28T05:56:57;16.90;99.90
17364;DHT22;8799;43.594;13.526;2023-02-28T05:59:25;17.00;99.90
17364;DHT22;8799;43.594;13.526;2023-02-28T06:01:53;16.90;99.90
17364;DHT22;8799;43.594;13.526;2023-02-28T06:04:21;16.90;99.90
17364;DHT22;8799;43.594;13.526;2023-02-28T06:06:49;16.90;99.90
17364;DHT22;8799;43.594;13.526;2023-02-28T06:09:19;16.90;99.90
17364;DHT22;8799;43.594;13.526;2023-02-28T06:11:48;16.90;99.90
17364;DHT22;8799;43.594;13.526;2023-02-28T06:14:17;16.90;99.90
17364;DHT22;8799;43.594;13.526;2023-02-28T06:16:45;16.90;99.90
17364;DHT22;8799;43.594;13.526;2023-02-28T06:19:13;16.90;99.90
17364;DHT22;8799;43.594;13.526;2023-02-28T06:21:41;16.90;99.90
17364;DHT22;8799;43.594;13.526;2023-02-28T06:24:09;16.90;99.90
17364;DHT22;8799;43.594;13.526;2023-02-28T06:26:39;16.90;99.90
17364;DHT22;8799;43.594;13.526;2023-02-28T06:29:07;16.90;99.90
17364;DHT22;8799;43.594;13.526;2023-02-28T06:31:34;16.90;99.90
17364;DHT22;8799;43.594;13.526;2023-02-28T06:34:03;16.90;99.90
17364;DHT22;8799;43.594;13.526;2023-02-28T06:36:33;16.90;99.90
17364;DHT22;8799;43.594;13.526;2023-02-28T06:39:01;16.90;99.90
17364;DHT22;8799;43.594;13.526;2023-02-28T06:41:29;16.90;99.90
17364;DHT22;8799;43.594;13.526;2023-02-28T06:43:59;16.90;99.90
17364;DHT22;8799;43.594;13.526;2023-02-28T06:46:27;16.90;99.90
17364;DHT22;8799;43.594;13.526;2023-02-28T06:48:55;16.90;99.90
17364;DHT22;8799;43.594;13.526;2023-02-28T06:51:23;16.80;99.90
17364;DHT22;8799;43.594;13.526;2023-02-28T06:53:52;16.80;99.90
17364;DHT22;8799;43.594;13.526;2023-02-28T06:56:21;16.80;99.90
17364;DHT22;8799;43.594;13.526;2023-02-28T06:58:49;16.80;99.90
17364;DHT22;8799;43.594;13.526;2023-02-28T07:01:20;16.80;99.90
17364;DHT22;8799;43.594;13.526;2023-02-28T07:03:48;16.80;99.90
17364;DHT22;8799;43.594;13.526;2023-02-28T07:06:17;16.80;99.90
17364;DHT22;8799;43.594;13.526;2023-02-28T07:08:45;16.80;99.90
17364;DHT22;8799;43.594;13.526;2023-02-28T07:11:13;16.80;99.90
17364;DHT22;8799;43.594;13.526;2023-02-28T07:13:41;16.80;99.90
17364;DHT22;8799;43.594;13.526;2023-02-28T07:16:10;16.80;99.90
17364;DHT22;8799;43.594;13.526;2023-02-28T07:18:40;16.80;99.90
17364;DHT22;8799;43.594;13.526;2023-02-28T07:21:09;16.70;99.90
17364;DHT22;8799;43.594;13.526;2023-02-28T07:23:37;16.70;99.90
17364;DHT22;8799;43.594;13.526;2023-02-28T07:26:06;16.70;99.90
17364;DHT22;8799;43.594;13.526;2023-02-28T07:28:34;16.70;99.90
17364;DHT22;8799;43.594;13.526;2023-02-28T07:31:06;16.70;99.90
17364;DHT22;8799;43.594;13.526;2023-02-28T07:33:34;16.70;99.90
17364;DHT22;8799;43.594;13.526;2023-02-28T07:36:06;16.70;99.90
17364;DHT22;8799;43.594;13.526;2023-02-28T07:38:35;16.70;99.90
17364;DHT22;8799;43.594;13.526;2023-02-28T07:41:03;16.70;99.90
17364;DHT22;8799;43.594;13.526;2023-02-28T07:43:32;16.70;99.90
17364;DHT22;8799;43.594;13.526;2023-02-28T07:46:03;16.70;99.90
17364;DHT22;8799;43.594;13.526;2023-02-28T07:48:30;16.70;99.90
17364;DHT22;8799;43.594;13.526;2023-02-28T07:50:59;16.70;99.90
17364;DHT22;8799;43.594;13.526;2023-02-28T07:53:29;16.70;99.90
17364;DHT22;8799;43.594;13.526;2023-02-28T07:55:58;16.70;99.90
17364;DHT22;8799;43.594;13.526;2023-02-28T07:58:27;16.70;99.90
17364;DHT22;8799;43.594;13.526;2023-02-28T08:00:55;16.60;99.90
17364;DHT22;8799;43.594;13.526;2023-02-28T08:03:23;16.60;99.90
17364;DHT22;8799;43.594;13.526;2023-02-28T08:05:51;16.60;99.90
17364;DHT22;8799;43.594;13.526;2023-02-28T08:08:20;16.60;99.90
17364;DHT22;8799;43.594;13.526;2023-02-28T08:10:50;16.60;99.90
17364;DHT22;8799;43.594;13.526;2023-02-28T08:13:18;16.60;99.90
17364;DHT22;8799;43.594;13.526;2023-02-28T08:15:46;16.60;99.90
17364;DHT22;8799;43.594;13.526;2023-02-28T08:18:14;16.60;99.90
17364;DHT22;8799;43.594;13.526;2023-02-28T08:20:42;16.60;99.90
17364;DHT22;8799;43.594;13.526;2023-02-28T08:23:09;16.60;99.90
17364;DHT22;8799;43.594;13.526;2023-02-28T08:25:37;16.60;99.90
17364;DHT22;8799;43.594;13.526;2023-02-28T08:28:07;16.60;99.90
17364;DHT22;8799;43.594;13.526;2023-02-28T08:30:35;16.60;99.90
17364;DHT22;8799;43.594;13.526;2023-02-28T08:33:03;16.60;99.90
17364;DHT22;8799;43.594;13.526;2023-02-28T08:35:31;16.60;99.90
17364;DHT22;8799;43.594;13.526;2023-02-28T08:37:59;16.60;99.90
17364;DHT22;8799;43.594;13.526;2023-02-28T08:40:27;16.60;99.90
17364;DHT22;8799;43.594;13.526;2023-02-28T08:42:55;16.60;99.90
17364;DHT22;8799;43.594;13.526;2023-02-28T08:45:25;16.60;99.90
17364;DHT22;8799;43.594;13.526;2023-02-28T08:47:54;16.60;99.90
17364;DHT22;8799;43.594;13.526;2023-02-28T08:50:23;16.50;99.90
17364;DHT22;8799;43.594;13.526;2023-02-28T08:52:51;16.60;99.90
17364;DHT22;8799;43.594;13.526;2023-02-28T08:55:19;16.50;99.90
17364;DHT22;8799;43.594;13.526;2023-02-28T08:57:47;16.50;99.90
17364;DHT22;8799;43.594;13.526;2023-02-28T09:00:16;16.60;99.90
17364;DHT22;8799;43.594;13.526;2023-02-28T09:02:46;16.50;99.90
17364;DHT22;8799;43.594;13.526;2023-02-28T09:05:14;16.50;99.90
17364;DHT22;8799;43.594;13.526;2023-02-28T09:07:41;16.50;99.90
17364;DHT22;8799;43.594;13.526;2023-02-28T09:10:11;16.50;99.90
17364;DHT22;8799;43.594;13.526;2023-02-28T09:12:39;16.50;99.90
17364;DHT22;8799;43.594;13.526;2023-02-28T09:15:08;16.50;99.90
17364;DHT22;8799;43.594;13.526;2023-02-28T09:17:36;16.50;99.90
17364;DHT22;8799;43.594;13.526;2023-02-28T09:20:09;16.50;99.90
17364;DHT22;8799;43.594;13.526;2023-02-28T09:22:37;16.50;99.90
17364;DHT22;8799;43.594;13.526;2023-02-28T09:25:05;16.50;99.90
17364;DHT22;8799;43.594;13.526;2023-02-28T09:27:34;16.50;99.90
17364;DHT22;8799;43.594;13.526;2023-02-28T09:30:03;16.50;99.90
17364;DHT22;8799;43.594;13.526;2023-02-28T09:32:31;16.40;99.90
17364;DHT22;8799;43.594;13.526;2023-02-28T09:34:59;16.40;99.90
17364;DHT22;8799;43.594;13.526;2023-02-28T09:37:30;16.40;99.90
17364;DHT22;8799;43.594;13.526;2023-02-28T09:39:58;16.40;99.90
17364;DHT22;8799;43.594;13.526;2023-02-28T09:42:31;16.40;99.90
17364;DHT22;8799;43.594;13.526;2023-02-28T09:45:01;16.40;99.90
17364;DHT22;8799;43.594;13.526;2023-02-28T09:47:34;16.40;99.90
17364;DHT22;8799;43.594;13.526;2023-02-28T09:50:11;16.40;99.90
17364;DHT22;8799;43.594;13.526;2023-02-28T09:52:45;16.40;99.90
17364;DHT22;8799;43.594;13.526;2023-02-28T09:55:20;16.40;99.90
17364;DHT22;8799;43.594;13.526;2023-02-28T09:57:50;16.40;99.90
17364;DHT22;8799;43.594;13.526;2023-02-28T10:00:22;16.40;99.90
17364;DHT22;8799;43.594;13.526;2023-02-28T10:03:06;16.40;99.90
17364;DHT22;8799;43.594;13.526;2023-02-28T10:05:41;16.40;99.90
17364;DHT22;8799;43.594;13.526;2023-02-28T10:08:14;16.40;99.90
17364;DHT22;8799;43.594;13.526;2023-02-28T10:10:44;16.40;99.90
17364;DHT22;8799;43.594;13.526;2023-02-28T10:13:18;16.40;99.90
17364;DHT22;8799;43.594;13.526;2023-02-28T10:15:51;16.30;99.90
17364;DHT22;8799;43.594;13.526;2023-02-28T10:18:24;16.30;99.90
17364;DHT22;8799;43.594;13.526;2023-02-28T10:20:53;16.30;99.90
17364;DHT22;8799;43.594;13.526;2023-02-28T10:23:27;16.30;99.90
17364;DHT22;8799;43.594;13.526;2023-02-28T10:25:59;16.30;99.90
17364;DHT22;8799;43.594;13.526;2023-02-28T10:28:29;16.30;99.90
17364;DHT22;8799;43.594;13.526;2023-02-28T10:30:58;16.30;99.90
17364;DHT22;8799;43.594;13.526;2023-02-28T10:33:29;16.30;99.90
17364;DHT22;8799;43.594;13.526;2023-02-28T10:35:58;16.30;99.90
17364;DHT22;8799;43.594;13.526;2023-02-28T10:38:31;16.30;99.90
17364;DHT22;8799;43.594;13.526;2023-02-28T10:41:07;16.30;99.90
17364;DHT22;8799;43.594;13.526;2023-02-28T10:43:35;16.20;99.90
17364;DHT22;8799;43.594;13.526;2023-02-28T10:46:09;16.30;99.90
17364;DHT22;8799;43.594;13.526;2023-02-28T10:48:42;16.30;99.90
17364;DHT22;8799;43.594;13.526;2023-02-28T10:51:12;16.20;99.90
17364;DHT22;8799;43.594;13.526;2023-02-28T10:53:48;16.30;99.90
17364;DHT22;8799;43.594;13.526;2023-02-28T10:56:17;16.30;99.90
17364;DHT22;8799;43.594;13.526;2023-02-28T10:58:52;16.30;99.90
17364;DHT22;8799;43.594;13.526;2023-02-28T11:01:21;16.20;99.90
17364;DHT22;8799;43.594;13.526;2023-02-28T11:03:49;16.20;99.90
17364;DHT22;8799;43.594;13.526;2023-02-28T11:06:20;16.20;99.90
17364;DHT22;8799;43.594;13.526;2023-02-28T11:08:53;16.20;99.90
17364;DHT22;8799;43.594;13.526;2023-02-28T11:11:22;16.20;99.90
17364;DHT22;8799;43.594;13.526;2023-02-28T11:13:54;16.20;99.90
17364;DHT22;8799;43.594;13.526;2023-02-28T11:16:35;16.20;99.90
17364;DHT22;8799;43.594;13.526;2023-02-28T11:19:06;16.20;99.90
17364;DHT22;8799;43.594;13.526;2023-02-28T11:21:36;16.20;99.90
17364;DHT22;8799;43.594;13.526;2023-02-28T11:24:16;16.20;99.90
17364;DHT22;8799;43.594;13.526;2023-02-28T11:26:47;16.20;99.90
17364;DHT22;8799;43.594;13.526;2023-02-28T11:29:22;16.20;99.90
17364;DHT22;8799;43.594;13.526;2023-02-28T11:32:12;16.20;99.90
17364;DHT22;8799;43.594;13.526;2023-02-28T11:34:42;16.10;99.90
17364;DHT22;8799;43.594;13.526;2023-02-28T11:37:13;16.20;99.90
17364;DHT22;8799;43.594;13.526;2023-02-28T11:39:44;16.10;99.90
17364;DHT22;8799;43.594;13.526;2023-02-28T11:42:34;16.20;99.90
17364;DHT22;8799;43.594;13.526;2023-02-28T11:45:15;16.20;99.90
17364;DHT22;8799;43.594;13.526;2023-02-28T11:47:48;16.10;99.90
17364;DHT22;8799;43.594;13.526;2023-02-28T11:50:33;16.20;99.90
17364;DHT22;8799;43.594;13.526;2023-02-28T11:53:10;16.20;99.90
17364;DHT22;8799;43.594;13.526;2023-02-28T11:55:45;16.10;99.90
17364;DHT22;8799;43.594;13.526;2023-02-28T12:01:28;16.20;99.90
17364;DHT22;8799;43.594;13.526;2023-02-28T12:04:09;16.20;99.90
17364;DHT22;8799;43.594;13.526;2023-02-28T12:06:45;16.10;99.90
17364;DHT22;8799;43.594;13.526;2023-02-28T12:09:29;16.20;99.90
17364;DHT22;8799;43.594;13.526;2023-02-28T12:12:12;16.10;99.90
17364;DHT22;8799;43.594;13.526;2023-02-28T12:15:05;16.20;99.90
17364;DHT22;8799;43.594;13.526;2023-02-28T12:17:51;16.10;99.90
17364;DHT22;8799;43.594;13.526;2023-02-28T12:20:27;16.10;99.90
17364;DHT22;8799;43.594;13.526;2023-02-28T12:23:17;16.10;99.90
17364;DHT22;8799;43.594;13.526;2023-02-28T12:25:56;16.10;99.90
17364;DHT22;8799;43.594;13.526;2023-02-28T12:28:33;16.10;99.90
17364;DHT22;8799;43.594;13.526;2023-02-28T12:31:05;16.10;99.90
17364;DHT22;8799;43.594;13.526;2023-02-28T12:33:40;16.10;99.90
17364;DHT22;8799;43.594;13.526;2023-02-28T12:36:15;16.10;99.90
17364;DHT22;8799;43.594;13.526;2023-02-28T12:38:48;16.10;99.90
17364;DHT22;8799;43.594;13.526;2023-02-28T12:41:18;16.10;99.90
17364;DHT22;8799;43.594;13.526;2023-02-28T12:43:55;16.10;99.90
17364;DHT22;8799;43.594;13.526;2023-02-28T12:46:27;16.10;99.90
17364;DHT22;8799;43.594;13.526;2023-02-28T12:49:00;16.00;99.90
17364;DHT22;8799;43.594;13.526;2023-02-28T12:51:29;16.10;99.90
17364;DHT22;8799;43.594;13.526;2023-02-28T12:54:09;16.00;99.90
17364;DHT22;8799;43.594;13.526;2023-02-28T12:56:44;16.00;99.90
17364;DHT22;8799;43.594;13.526;2023-02-28T12:59:23;16.10;99.90
17364;DHT22;8799;43.594;13.526;2023-02-28T13:08:22;16.00;99.90
17364;DHT22;8799;43.594;13.526;2023-02-28T13:10:52;16.10;99.90
17364;DHT22;8799;43.594;13.526;2023-02-28T13:13:24;16.10;99.90
17364;DHT22;8799;43.594;13.526;2023-02-28T13:16:07;16.00;99.90
17364;DHT22;8799;43.594;13.526;2023-02-28T13:18:37;16.10;99.90
17364;DHT22;8799;43.594;13.526;2023-02-28T13:21:06;16.10;99.90
17364;DHT22;8799;43.594;13.526;2023-02-28T13:24:00;16.00;99.90
17364;DHT22;8799;43.594;13.526;2023-02-28T13:29:42;16.10;99.90
17364;DHT22;8799;43.594;13.526;2023-02-28T13:32:37;16.10;99.90
17364;DHT22;8799;43.594;13.526;2023-02-28T13:35:34;16.10;99.90
17364;DHT22;8799;43.594;13.526;2023-02-28T13:38:38;16.10;99.90
17364;DHT22;8799;43.594;13.526;2023-02-28T13:41:43;16.10;99.90
17364;DHT22;8799;43.594;13.526;2023-02-28T13:44:13;16.10;99.90
17364;DHT22;8799;43.594;13.526;2023-02-28T13:49:48;16.20;99.90
17364;DHT22;8799;43.594;13.526;2023-02-28T13:52:20;16.20;99.90
17364;DHT22;8799;43.594;13.526;2023-02-28T13:54:56;16.10;99.90
17364;DHT22;8799;43.594;13.526;2023-02-28T13:57:35;16.20;99.90
17364;DHT22;8799;43.594;13.526;2023-02-28T14:00:20;16.20;99.90
17364;DHT22;8799;43.594;13.526;2023-02-28T14:06:08;16.20;99.90
17364;DHT22;8799;43.594;13.526;2023-02-28T14:08:37;16.30;99.90
17364;DHT22;8799;43.594;13.526;2023-02-28T14:11:26;16.30;99.90
17364;DHT22;8799;43.594;13.526;2023-02-28T14:13:54;16.30;99.90
17364;DHT22;8799;43.594;13.526;2023-02-28T14:16:23;16.30;99.90
17364;DHT22;8799;43.594;13.526;2023-02-28T14:18:56;16.30;99.90
17364;DHT22;8799;43.594;13.526;2023-02-28T14:21:28;16.30;99.90
17364;DHT22;8799;43.594;13.526;2023-02-28T14:27:15;16.30;99.90
17364;DHT22;8799;43.594;13.526;2023-02-28T14:32:51;16.30;99.90
17364;DHT22;8799;43.594;13.526;2023-02-28T14:35:45;16.30;99.90
17364;DHT22;8799;43.594;13.526;2023-02-28T14:38:21;16.30;99.90
17364;DHT22;8799;43.594;13.526;2023-02-28T14:40:52;16.30;99.90
17364;DHT22;8799;43.594;13.526;2023-02-28T14:43:24;16.30;99.90
17364;DHT22;8799;43.594;13.526;2023-02-28T14:45:55;16.30;99.90
17364;DHT22;8799;43.594;13.526;2023-02-28T14:48:24;16.30;99.90
17364;DHT22;8799;43.594;13.526;2023-02-28T14:50:54;16.30;99.90
17364;DHT22;8799;43.594;13.526;2023-02-28T14:53:27;16.30;99.90
17364;DHT22;8799;43.594;13.526;2023-02-28T14:55:55;16.40;99.90
17364;DHT22;8799;43.594;13.526;2023-02-28T14:58:26;16.40;99.90
17364;DHT22;8799;43.594;13.526;2023-02-28T15:00:57;16.30;99.90
17364;DHT22;8799;43.594;13.526;2023-02-28T15:03:30;16.40;99.90
17364;DHT22;8799;43.594;13.526;2023-02-28T15:06:00;16.40;99.90
17364;DHT22;8799;43.594;13.526;2023-02-28T15:08:31;16.40;99.90
17364;DHT22;8799;43.594;13.526;2023-02-28T15:11:03;16.40;99.90
17364;DHT22;8799;43.594;13.526;2023-02-28T15:13:36;16.40;99.90
17364;DHT22;8799;43.594;13.526;2023-02-28T15:16:09;16.40;99.90
17364;DHT22;8799;43.594;13.526;2023-02-28T15:18:43;16.40;99.90
17364;DHT22;8799;43.594;13.526;2023-02-28T15:21:14;16.40;99.90
17364;DHT22;8799;43.594;13.526;2023-02-28T15:23:46;16.40;99.90
17364;DHT22;8799;43.594;13.526;2023-02-28T15:26:18;16.40;99.90
17364;DHT22;8799;43.594;13.526;2023-02-28T15:28:47;16.40;99.90
17364;DHT22;8799;43.594;13.526;2023-02-28T15:31:22;16.50;99.90
17364;DHT22;8799;43.594;13.526;2023-02-28T15:33:55;16.50;99.90
17364;DHT22;8799;43.594;13.526;2023-02-28T15:36:25;16.50;99.90
17364;DHT22;8799;43.594;13.526;2023-02-28T15:38:57;16.50;99.90
17364;DHT22;8799;43.594;13.526;2023-02-28T15:41:27;16.50;99.90
17364;DHT22;8799;43.594;13.526;2023-02-28T15:44:24;16.50;99.90
17364;DHT22;8799;43.594;13.526;2023-02-28T15:46:58;16.50;99.90
17364;DHT22;8799;43.594;13.526;2023-02-28T15:49:28;16.50;99.90
17364;DHT22;8799;43.594;13.526;2023-02-28T15:51:58;16.50;99.90
17364;DHT22;8799;43.594;13.526;2023-02-28T15:54:32;16.50;99.90
17364;DHT22;8799;43.594;13.526;2023-02-28T15:57:04;16.50;99.90
17364;DHT22;8799;43.594;13.526;2023-02-28T15:59:35;16.50;99.90
17364;DHT22;8799;43.594;13.526;2023-02-28T16:02:12;16.50;99.90
17364;DHT22;8799;43.594;13.526;2023-02-28T16:04:58;16.50;99.90
17364;DHT22;8799;43.594;13.526;2023-02-28T16:07:27;16.50;99.90
17364;DHT22;8799;43.594;13.526;2023-02-28T16:09:57;16.60;99.90
17364;DHT22;8799;43.594;13.526;2023-02-28T16:12:27;16.60;99.90
17364;DHT22;8799;43.594;13.526;2023-02-28T16:14:55;16.50;99.90
17364;DHT22;8799;43.594;13.526;2023-02-28T16:17:26;16.60;99.90
17364;DHT22;8799;43.594;13.526;2023-02-28T16:19:55;16.60;99.90
17364;DHT22;8799;43.594;13.526;2023-02-28T16:22:24;16.60;99.90
17364;DHT22;8799;43.594;13.526;2023-02-28T16:24:51;16.60;99.90